Athelstane, Wisconsin
Current Conditions -  °F | °C
As of 6:54 PM on Tuesday 27 Jan 2015 (Local Time) from KIMT Reporting Station
Overcast Overcast  
Wind Chill: 16°   Ceiling: 2000
Heat Index: 22°   Visibility: 10mi
Dew Point: 17°   Wind: 5mph
Humidity: 82%   Direction: 140°SE
Pressure: 30.18"   Gusts: NA
Location:  45.42°N, 88.1°W
Report Text: KIMT 280054Z AUTO 14004KT 10SM OVC020 M06/M08 A3018 RMK AO2 SLP243 T10561083
Loading
Personal Weather Stations






























Interactive Weather Map New forecast layout! Learn more

10-Day Weather Forecast

Advertisements
Track Severe Weather on mobile